• Join FlightAware (Why Join?)
  • Login
  • US Flag GB Flag 
05:26 EST


 

Airport Tracker/Info


-or-


 

Live Flight TrackerFlight Track Log ✈ SWA1969 ✈ 19-Apr-2013 ✈ KMDW - KPHX

Flight Track Log - Related Links

Times and Time Zones

All times are in EDT time to prevent confusion due to time zone crossing. See the SWA1969 flight status page for this flight to view local times or setup timezone preferences in your user account.

Time Position Orientation Groundspeed Altitude Reporting Facility
EDT Latitude Longitude Course Direction KTS MPH feet Rate Location/Type
13:28 41.7667 -87.8000 285° West 161 185 2,600  Level Chicago TRACON
13:29 41.7333 -87.8667 236° Southwest 203 234 5,200 2,460 Climbing Chicago TRACON
13:29 41.7378 -87.8917 283° West 196 226 6,000 2,760 Climbing Chicago Center
13:30 41.7356 -87.9786 268° West 234 269 9,100 2,400 Climbing Chicago Center
13:31 41.7333 -88.0706 268° West 249 287 11,000 1,860 Climbing Chicago Center
13:32 41.7289 -88.1867 267° West 311 358 13,000 2,220 Climbing Chicago Center
13:33 41.9033 -88.4996 285° West  Level FlightAware Approximate
13:33 41.7281 -88.3344 270° West 330 380 15,700  Level Chicago Center
13:34 41.7075 -88.4581 257° West 341 392 18,400 2,220 Climbing Chicago Center
13:35 41.6856 -88.5867 257° West 354 407 20,300 1,800 Climbing Chicago Center
13:36 41.6628 -88.7211 257° West 370 426 22,200 1,740 Climbing Chicago Center
13:37 41.6397 -88.8581 257° West 379 436 24,000 1,620 Climbing Chicago Center
13:38 41.6100 -89.0283 257° West 391 450 25,600 1,440 Climbing Chicago Center
13:39 41.5847 -89.1756 257° West 406 467 27,000 1,380 Climbing Chicago Center
13:40 41.5592 -89.3261 257° West 415 478 28,500 1,500 Climbing Chicago Center
13:41 41.5317 -89.4814 257° West 412 474 30,100 1,260 Climbing Chicago Center
13:42 41.5050 -89.6292 256° West 412 474 31,200 1,020 Climbing Chicago Center
13:43 41.4794 -89.7797 257° West 416 479 32,300 1,140 Climbing Chicago Center
13:44 41.4525 -89.9286 256° West 415 478 33,600 1,200 Climbing Chicago Center
13:45 41.4200 -90.1039 256° West 407 468 34,900 960 Climbing Chicago Center
13:47 41.3939 -90.2497 257° West 407 468 35,600 480 Climbing Chicago Center
13:48 41.3675 -90.3956 256° West 406 467 36,000 180 Climbing Chicago Center
13:49 41.3403 -90.5414 256° West 408 470 36,000  Level Chicago Center
13:50 41.3072 -90.6900 254° West 419 482 36,000  Level Chicago Center
13:51 41.2647 -90.8292 248° West 409 471 36,000  Level Chicago Center
13:52 41.2161 -90.9956 249° West 405 466 36,000  Level Chicago Center
13:53 41.1817 -91.1378 252° West 407 468 36,000  Level Chicago Center
13:54 41.1469 -91.2792 252° West 405 466 36,000  Level Chicago Center
13:56 41.0772 -91.5628 252° West 406 467 36,000  Level Chicago Center
13:57 41.0394 -91.7128 252° West 403 464 36,000  Level Chicago Center
13:58 41.0039 -91.8531 251° West 406 467 36,000  Level Chicago Center
13:59 40.9689 -91.9944 252° West 408 470 36,000  Level Chicago Center
14:00 40.9253 -92.1639 251° West 409 471 36,000  Level Chicago Center
14:01 40.8900 -92.3072 252° West 412 474 36,000  Level Chicago Center
14:02 40.8528 -92.4506 251° West 415 478 36,000  Level Chicago Center
14:03 40.8153 -92.5969 251° West 424 488 36,000  Level Chicago Center
14:04 40.7772 -92.7414 251° West 423 487 36,000  Level Chicago Center
14:05 40.7394 -92.8872 251° West 424 488 36,000  Level Minneapolis Center
14:06 40.6944 -93.0589 251° West 421 484 36,000  Level Minneapolis Center
14:08 40.6206 -93.3397 251° West 412 474 36,000  Level Kansas City Center
14:09 40.5731 -93.5078 250° West 412 474 36,000  Level Minneapolis Center
14:10 40.5353 -93.6483 251° West 410 472 36,000  Level Minneapolis Center
14:11 40.4917 -93.8153 251° West 409 471 36,000  Level Minneapolis Center
14:12 40.4519 -93.9536 249° West 408 470 36,000  Level Minneapolis Center
14:14 40.4147 -94.0911 250° West 405 466 36,000  Level Minneapolis Center
14:15 40.3781 -94.2264 250° West 399 459 36,000  Level Minneapolis Center
14:15 40.3497 -94.3347 251° West 399 459 36,000  Level Kansas City Center
14:16 40.3094 -94.4808 250° West 399 459 36,000  Level Kansas City Center
14:17 40.2664 -94.6322 250° West 399 459 36,000  Level Kansas City Center
14:19 40.2292 -94.7619 249° West 398 458 36,000  Level Kansas City Center
14:20 40.1869 -94.9147 250° West 401 461 36,000  Level Kansas City Center
14:21 40.1492 -95.0486 250° West 408 470 36,000  Level Kansas City Center
14:22 40.1047 -95.2025 249° West 408 470 36,000  Level Kansas City Center
14:23 40.0669 -95.3347 250° West 407 468 36,000  Level Kansas City Center
14:24 40.0228 -95.4894 250° West 409 471 36,000  Level Kansas City Center
14:25 39.9831 -95.6233 249° West 413 475 36,000  Level Kansas City Center
14:26 39.9381 -95.7783 249° West 411 473 36,000  Level Kansas City Center
14:27 39.8972 -95.9169 249° West 422 486 36,000  Level Kansas City Center
14:28 39.8508 -96.0744 249° West 421 484 36,000  Level Kansas City Center
14:29 39.8056 -96.2286 249° West 426 490 36,000  Level Kansas City Center
14:30 39.7614 -96.3719 248° West 427 491 36,000  Level Kansas City Center
14:31 39.7206 -96.5100 249° West 429 494 36,000  Level Kansas City Center
14:32 39.6722 -96.6689 248° West 424 488 36,000  Level Kansas City Center
14:33 39.6311 -96.8014 248° West 417 480 36,000  Level Kansas City Center
14:34 39.5894 -96.9358 248° West 416 479 36,000  Level Kansas City Center
14:35 39.5394 -97.1008 249° West 413 475 36,000  Level Kansas City Center
14:36 39.4967 -97.2439 249° West 414 476 36,000  Level Kansas City Center
14:37 39.4550 -97.3758 248° West 415 478 36,000  Level Kansas City Center
14:38 39.4078 -97.5300 248° West 415 478 36,000  Level Kansas City Center
14:39 39.3672 -97.6611 248° West 414 476 36,000  Level Kansas City Center
14:40 39.3244 -97.8008 248° West 417 480 36,000  Level Kansas City Center
14:41 39.2742 -97.9494 246° West 415 478 36,000  Level Kansas City Center
14:42 39.2267 -98.1014 248° West 411 473 36,000  Level Kansas City Center
14:43 39.1867 -98.2286 248° West 409 471 36,000  Level Kansas City Center
14:44 39.1444 -98.3619 248° West 405 466 36,000  Level Kansas City Center
14:45 39.1014 -98.4936 247° West 403 464 36,000  Level Kansas City Center
14:46 39.0586 -98.6261 247° West 402 463 36,000  Level Kansas City Center
14:48 39.0053 -98.7897 247° West 411 473 36,000  Level Kansas City Center
14:48 38.9744 -98.8853 247° West 415 478 36,000  Level Denver Center
14:49 38.9272 -99.0303 247° West 413 475 36,000  Level Denver Center
14:50 38.8761 -99.1836 247° West 419 482 36,000  Level Denver Center
14:51 38.8322 -99.3156 247° West 422 486 36,000  Level Denver Center
14:52 38.8244 -99.3378 246° West 422 486 36,000  Level Kansas City Center
14:53 38.7692 -99.5028 247° West 422 486 36,000  Level Kansas City Center
14:53 38.7372 -99.6025 248° West 425 489 36,000  Level Denver Center
14:54 38.6847 -99.7575 247° West 425 489 36,000  Level Denver Center
14:55 38.6400 -99.8881 246° West 421 484 36,000  Level Denver Center
14:57 38.5878 -100.0400 246° West 420 483 36,000  Level Denver Center
14:58 38.5439 -100.1692 247° West 416 479 36,000  Level Denver Center
14:59 38.4997 -100.2983 246° West 416 479 36,000  Level Denver Center
15:00 38.4475 -100.4469 246° West 412 474 36,000  Level Denver Center
15:01 38.3958 -100.5967 246° West 416 479 36,000  Level Denver Center
15:02 38.3511 -100.7236 246° West 412 474 36,000  Level Denver Center
15:03 38.2983 -100.8739 246° West 416 479 36,000  Level Denver Center
15:04 38.2542 -101.0003 246° West 414 476 36,000  Level Denver Center
15:05 38.2014 -101.1492 246° West 415 478 36,000  Level Denver Center
15:06 38.1567 -101.2761 246° West 414 476 36,000  Level Denver Center
15:07 38.1111 -101.4031 246° West 414 476 36,000  Level Denver Center
15:08 38.0586 -101.5511 246° West 414 476 36,000  Level Denver Center
15:09 38.0131 -101.6778 245° Southwest 415 478 36,000  Level Denver Center
15:10 37.9600 -101.8256 246° West 414 476 36,000  Level Denver Center
15:11 37.9122 -101.9533 245° Southwest 417 480 36,000  Level Denver Center
15:12 37.8581 -102.1036 246° West 421 484 36,000  Level Denver Center
15:13 37.8119 -102.2303 245° Southwest 417 480 36,000  Level Denver Center
15:14 37.7567 -102.3775 245° Southwest 415 478 36,000  Level Denver Center
15:15 37.7069 -102.5114 245° Southwest 416 479 36,000  Level Denver Center
15:16 37.6617 -102.6375 246° West 414 476 36,000  Level Denver Center
15:17 37.6067 -102.7833 245° Southwest 411 473 36,000  Level Denver Center
15:18 37.5603 -102.9081 245° Southwest 411 473 36,000  Level Denver Center
15:19 37.5044 -103.0550 244° Southwest 415 478 36,000  Level Denver Center
15:20 37.4575 -103.1808 245° Southwest 414 476 36,000  Level Denver Center
15:21 37.4017 -103.3272 244° Southwest 415 478 36,000  Level Denver Center
15:22 37.3533 -103.4536 244° Southwest 418 481 36,000  Level Denver Center
15:23 37.3381 -103.4967 246° West 416 479 36,000  Level Albuquerque Center
15:24 37.2803 -103.6447 244° Southwest 419 482 36,000  Level Albuquerque Center
15:24 37.2472 -103.7267 243° Southwest 417 480 36,000  Level Denver Center
15:25 37.1989 -103.8536 244° Southwest 418 481 36,000  Level Denver Center
15:26 37.1419 -104.0006 244° Southwest 416 479 36,000  Level Denver Center
15:27 37.0919 -104.1261 244° Southwest 417 480 36,000  Level Denver Center
15:28 37.0758 -104.1675 244° Southwest 416 479 36,000  Level Albuquerque Center
15:29 37.0186 -104.3133 244° Southwest 416 479 36,000  Level Albuquerque Center
15:30 36.9856 -104.3967 244° Southwest 415 478 36,000  Level Denver Center
15:31 36.9378 -104.5214 244° Southwest 415 478 36,000  Level Denver Center
15:32 36.8803 -104.6633 243° Southwest 411 473 36,000  Level Denver Center
15:32 36.8644 -104.7006 242° Southwest 409 471 36,000  Level Albuquerque Center
15:33 36.8161 -104.8222 244° Southwest 408 470 36,000  Level Albuquerque Center
15:34 36.7592 -104.9675 244° Southwest 414 476 36,000  Level Albuquerque Center
15:35 36.7092 -105.0897 243° Southwest 414 476 36,000  Level Albuquerque Center
15:36 36.6517 -105.2319 243° Southwest 411 473 36,000  Level Albuquerque Center
15:37 36.6014 -105.3544 243° Southwest 413 475 36,000  Level Albuquerque Center
15:38 36.5439 -105.4997 244° Southwest 418 481 36,000  Level Albuquerque Center
15:39 36.4861 -105.6311 241° Southwest 420 483 36,000  Level Albuquerque Center
15:40 36.4350 -105.7592 244° Southwest 415 478 36,000  Level Albuquerque Center
15:41 36.3831 -105.8883 243° Southwest 417 480 36,000  Level Albuquerque Center
15:42 36.3314 -106.0178 244° Southwest 418 481 36,000  Level Albuquerque Center
15:43 36.2769 -106.1458 242° Southwest 421 484 36,000  Level Albuquerque Center
15:44 36.2200 -106.2833 243° Southwest 416 479 36,000  Level Albuquerque Center
15:45 36.1603 -106.4244 242° Southwest 415 478 36,000 -540 Level Albuquerque Center
15:46 36.1069 -106.5531 243° Southwest 419 482 35,000 -1,020 Descending Albuquerque Center
15:47 36.0531 -106.6794 242° Southwest 418 481 34,000 -540 Descending Albuquerque Center
15:49 36.0011 -106.8042 243° Southwest 412 474 34,000  Level Albuquerque Center
15:50 35.9469 -106.9294 242° Southwest 414 476 34,000  Level Albuquerque Center
15:51 35.8850 -107.0747 242° Southwest 420 483 34,000  Level Albuquerque Center
15:52 35.8242 -107.2175 242° Southwest 421 484 34,000  Level Albuquerque Center
15:53 35.7714 -107.3394 242° Southwest 422 486 34,000  Level Albuquerque Center
15:54 35.7183 -107.4619 242° Southwest 421 484 34,000  Level Albuquerque Center
15:55 35.6567 -107.6047 242° Southwest 422 486 34,000  Level Albuquerque Center
15:56 35.6025 -107.7289 242° Southwest 427 491 34,000  Level Albuquerque Center
15:57 35.5394 -107.8717 242° Southwest 426 490 34,000  Level Albuquerque Center
15:58 35.4867 -107.9947 242° Southwest 425 489 34,000  Level Albuquerque Center
15:59 35.4231 -108.1383 242° Southwest 426 490 34,000  Level Albuquerque Center
16:00 35.3672 -108.2633 241° Southwest 431 496 34,000  Level Albuquerque Center
16:01 35.3025 -108.4103 242° Southwest 436 502 34,000  Level Albuquerque Center
16:02 35.2464 -108.5353 241° Southwest 436 502 34,000  Level Albuquerque Center
16:03 35.1900 -108.6633 242° Southwest 441 507 34,000  Level Albuquerque Center
16:04 35.1242 -108.8108 241° Southwest 441 507 34,000  Level Albuquerque Center
16:05 35.0669 -108.9369 241° Southwest 442 509 34,000  Level Albuquerque Center
16:06 34.9994 -109.0853 241° Southwest 443 510 34,000  Level Albuquerque Center
16:07 34.9458 -109.2133 243° Southwest 443 510 34,000  Level Albuquerque Center
16:08 34.8914 -109.3664 247° West 440 506 34,000  Level Albuquerque Center
16:09 34.8425 -109.4961 245° Southwest 440 506 34,000  Level Albuquerque Center
16:10 34.7861 -109.6464 245° Southwest 438 504 34,000  Level Albuquerque Center
16:11 34.7381 -109.7764 246° West 440 506 34,000  Level Albuquerque Center
16:12 34.6822 -109.9292 246° West 442 509 34,000  Level Albuquerque Center
16:13 34.6336 -110.0592 246° West 442 509 34,000  Level Albuquerque Center
16:14 34.5872 -110.1925 247° West 448 516 34,000  Level Albuquerque Center
16:15 34.5286 -110.3386 244° Southwest 435 501 34,000 -900 Level Albuquerque Center
16:16 34.4850 -110.4661 247° West 444 511 32,200 -1,860 Descending Albuquerque Center
16:17 34.4361 -110.5961 246° West 432 497 30,200 -2,160 Descending Albuquerque Center
16:19 34.3758 -110.7411 243° Southwest 405 466 27,800 -2,100 Descending Albuquerque Center
16:20 34.3111 -110.8517 235° Southwest 405 466 25,900 -1,920 Descending Albuquerque Center
16:21 34.2375 -110.9467 227° Southwest 392 451 23,900 -1,860 Descending Albuquerque Center
16:22 34.1650 -111.0397 227° Southwest 384 442 22,100 -1,800 Descending Albuquerque Center
16:23 34.0953 -111.1306 227° Southwest 373 429 20,200 -1,800 Descending Albuquerque Center
16:24 34.0283 -111.2172 227° Southwest 360 414 18,500 -1,800 Descending Albuquerque Center
16:25 33.9500 -111.3172 227° Southwest 342 394 16,600 -1,560 Descending Albuquerque Center
16:26 33.8864 -111.3978 226° Southwest 332 382 15,300 -1,260 Descending Albuquerque Center
16:27 33.8400 -111.4833 237° Southwest 308 354 14,000 -1,380 Descending Albuquerque Center
16:28 33.7969 -111.5669 238° Southwest 294 338 12,500 -1,500 Descending Albuquerque Center
16:29 33.7528 -111.6483 237° Southwest 289 333 11,000 -1,260 Descending Albuquerque Center
16:30 33.7097 -111.7283 237° Southwest 285 328 10,000 -540 Descending Albuquerque Center
16:31 33.6672 -111.8061 237° Southwest 279 321 10,000 -360 Level Albuquerque Center
16:32 33.6269 -111.8803 237° Southwest 265 305 9,300 -540 Descending Albuquerque Center
16:33 33.5828 -111.9622 237° Southwest 245 282 8,900 -780 Descending Albuquerque Center
16:34 33.5478 -112.0294 238° Southwest 237 273 7,700 -1,020 Descending Albuquerque Center
16:35 33.5250 -112.1014 249° West 235 270 6,800 -900 Descending Albuquerque Center
16:36 33.5250 -112.1739 270° West 219 252 5,900 -960 Descending Albuquerque Center
16:37 33.4925 -112.2097 223° Southwest 206 237 4,900 -1,140 Descending Albuquerque Center
16:38 33.4536 -112.1639 135° Southeast 199 229 3,600 -1,260 Descending Albuquerque Center
16:39 33.4406 -112.0933 102° East 184 212 2,300 -1,020 Descending Albuquerque Center
16:40 33.4411 -112.0411 89° East 162 186 1,500 -540 Descending Albuquerque Center
16:41 33.4397 -111.9931 92° East 155 178 1,200 -300 Descending Albuquerque Center